Time;durP1;ratioP1;P1;durP2;ratioP2;P2;SDS_P1;SDS_P2;PMS_P1;PMS_P2;Temp;Humidity;BMP_temperature;BMP_pressure;BME280_temperature;BME280_humidity;BME280_pressure;Samples;Min_cycle;Max_cycle;Signal;HPM_P1;HPM_P2
2022/06/27 00:02:10;;;;;;;1.30;0.50;;;19.60;99.90;;;;;;5030009;28;20042;-45
2022/06/27 00:04:36;;;;;;;1.20;0.52;;;19.60;99.90;;;;;;5027756;28;20073;-46
2022/06/27 00:07:01;;;;;;;2.50;0.60;;;19.50;99.90;;;;;;5030212;28;20042;-47
2022/06/27 00:09:27;;;;;;;1.80;0.50;;;19.50;99.90;;;;;;5031295;28;20033;-47
2022/06/27 00:11:53;;;;;;;1.85;0.50;;;19.50;99.90;;;;;;5032354;28;20049;-45
2022/06/27 00:14:19;;;;;;;2.10;0.50;;;19.50;99.90;;;;;;5028179;28;20048;-45
2022/06/27 00:16:45;;;;;;;2.08;0.50;;;19.50;99.90;;;;;;5033032;28;20041;-44
2022/06/27 00:19:10;;;;;;;2.40;0.70;;;19.50;99.90;;;;;;5029062;28;20042;-44
2022/06/27 00:21:36;;;;;;;1.50;0.40;;;19.50;99.90;;;;;;5029946;28;20121;-44
2022/06/27 00:24:02;;;;;;;3.00;0.70;;;19.50;99.90;;;;;;5029603;28;20041;-45
2022/06/27 00:26:27;;;;;;;2.92;0.70;;;19.50;99.90;;;;;;5032377;28;20041;-47
2022/06/27 00:28:53;;;;;;;2.35;0.40;;;19.40;99.90;;;;;;5024949;28;20430;-46
2022/06/27 00:31:19;;;;;;;1.85;0.43;;;19.40;99.90;;;;;;5030662;28;20044;-46
2022/06/27 00:33:44;;;;;;;1.50;0.60;;;19.40;99.90;;;;;;5029575;28;20071;-45
2022/06/27 00:36:10;;;;;;;2.63;0.50;;;19.40;99.90;;;;;;5028930;28;20069;-44
2022/06/27 00:38:36;;;;;;;2.38;0.60;;;19.40;99.90;;;;;;5024413;28;20041;-44
2022/06/27 00:41:02;;;;;;;1.38;0.75;;;19.40;99.90;;;;;;5027266;28;20272;-44
2022/06/27 00:43:27;;;;;;;1.38;0.70;;;19.40;99.90;;;;;;5014030;28;20042;-45
2022/06/27 00:45:53;;;;;;;1.70;0.70;;;19.40;99.90;;;;;;5022605;28;20048;-44
2022/06/27 00:48:19;;;;;;;2.00;0.82;;;19.40;99.90;;;;;;5026588;28;20154;-49
2022/06/27 00:50:45;;;;;;;2.53;0.85;;;19.30;99.90;;;;;;5024674;28;20494;-46
2022/06/27 00:53:12;;;;;;;2.20;0.93;;;19.30;99.90;;;;;;5002572;28;20077;-46
2022/06/27 00:55:38;;;;;;;3.42;0.85;;;19.30;99.90;;;;;;5030525;28;20037;-46
2022/06/27 00:58:04;;;;;;;1.88;0.82;;;19.30;99.90;;;;;;5027057;28;20081;-47
2022/06/27 01:00:30;;;;;;;1.65;0.60;;;19.30;99.90;;;;;;5021143;28;20061;-46
2022/06/27 01:02:55;;;;;;;2.85;1.23;;;19.30;99.90;;;;;;5019556;28;20041;-44
2022/06/27 01:05:21;;;;;;;3.30;1.15;;;19.30;99.90;;;;;;5026134;28;20495;-45
2022/06/27 01:07:47;;;;;;;3.92;1.25;;;19.30;99.90;;;;;;5021469;28;20077;-46
2022/06/27 01:10:13;;;;;;;2.13;1.00;;;19.30;99.90;;;;;;5012632;28;20517;-45
2022/06/27 01:12:40;;;;;;;1.63;1.13;;;19.20;99.90;;;;;;5028859;28;20124;-45
2022/06/27 01:15:07;;;;;;;2.60;1.17;;;19.20;99.90;;;;;;5024968;28;20038;-48
2022/06/27 01:17:34;;;;;;;2.35;1.27;;;19.20;99.90;;;;;;5030847;28;20347;-45
2022/06/27 01:20:00;;;;;;;1.42;0.70;;;19.20;99.90;;;;;;5029232;28;20084;-45
2022/06/27 01:22:25;;;;;;;2.08;0.70;;;19.20;99.90;;;;;;5029804;28;20532;-44
2022/06/27 01:24:51;;;;;;;1.77;0.93;;;19.20;99.90;;;;;;5041419;28;20033;-45
2022/06/27 01:27:17;;;;;;;2.03;0.70;;;19.20;99.90;;;;;;5030011;28;20106;-45
2022/06/27 01:29:43;;;;;;;2.38;1.00;;;19.20;99.90;;;;;;5020421;28;20484;-47
2022/06/27 01:32:09;;;;;;;2.45;0.98;;;19.20;99.90;;;;;;5031523;28;20045;-45
2022/06/27 01:34:35;;;;;;;2.25;0.73;;;19.20;99.90;;;;;;5017127;28;20045;-45
2022/06/27 01:37:01;;;;;;;2.05;0.63;;;19.20;99.90;;;;;;5027820;28;20426;-46
2022/06/27 01:39:27;;;;;;;2.17;0.85;;;19.20;99.90;;;;;;5028243;28;20484;-46
2022/06/27 01:41:55;;;;;;;1.45;0.60;;;19.20;99.90;;;;;;5029311;28;20073;-48
2022/06/27 01:44:23;;;;;;;1.27;0.75;;;19.10;99.90;;;;;;5031805;28;20045;-47
2022/06/27 01:46:51;;;;;;;2.55;1.20;;;19.10;99.90;;;;;;5044939;28;20041;-46
2022/06/27 01:49:18;;;;;;;2.03;0.95;;;19.20;99.90;;;;;;5026913;28;20061;-45
2022/06/27 01:51:47;;;;;;;2.97;1.40;;;19.10;99.90;;;;;;5028831;28;20056;-47
2022/06/27 01:54:15;;;;;;;2.28;1.02;;;19.10;99.90;;;;;;5028470;28;20053;-48
2022/06/27 01:56:42;;;;;;;2.00;1.73;;;19.10;99.90;;;;;;5032610;28;20039;-48
2022/06/27 01:59:08;;;;;;;2.30;1.27;;;19.10;99.90;;;;;;5031274;28;20045;-46
2022/06/27 02:01:35;;;;;;;2.85;1.20;;;19.10;99.90;;;;;;5033349;28;20052;-46
2022/06/27 02:04:02;;;;;;;1.92;1.08;;;19.10;99.90;;;;;;5030930;28;20386;-46
2022/06/27 02:06:29;;;;;;;2.30;1.25;;;19.10;99.90;;;;;;5048276;28;20482;-46
2022/06/27 02:08:57;;;;;;;3.95;1.40;;;19.10;99.90;;;;;;5027286;28;20054;-45
2022/06/27 02:11:24;;;;;;;1.75;1.10;;;19.10;99.90;;;;;;5015314;28;20053;-49
2022/06/27 02:13:49;;;;;;;3.55;1.05;;;19.00;99.90;;;;;;5027882;28;20052;-45
2022/06/27 02:16:17;;;;;;;2.20;0.60;;;19.00;99.90;;;;;;5021872;28;20052;-45
2022/06/27 02:18:43;;;;;;;2.60;0.85;;;19.00;99.90;;;;;;5033699;28;20037;-45
2022/06/27 02:21:16;;;;;;;2.53;1.00;;;19.00;99.90;;;;;;5036454;28;20103;-48
2022/06/27 02:23:42;;;;;;;3.30;1.10;;;19.00;99.90;;;;;;5023945;28;20069;-47
2022/06/27 02:26:09;;;;;;;2.15;0.93;;;19.00;99.90;;;;;;5032298;28;20042;-45
2022/06/27 02:28:36;;;;;;;2.15;1.40;;;19.00;99.90;;;;;;5023940;28;20043;-46
2022/06/27 02:31:03;;;;;;;2.75;0.93;;;19.00;99.90;;;;;;5027282;28;20368;-48
2022/06/27 02:33:34;;;;;;;1.77;1.15;;;19.00;99.90;;;;;;5031622;28;20045;-45
2022/06/27 02:36:05;;;;;;;2.30;0.95;;;19.00;99.90;;;;;;5001287;28;20044;-49
2022/06/27 02:38:31;;;;;;;1.73;1.30;;;18.90;99.90;;;;;;5032153;28;20034;-45
2022/06/27 02:41:01;;;;;;;1.75;1.23;;;18.90;99.90;;;;;;5023495;28;20458;-46
2022/06/27 02:43:32;;;;;;;1.40;1.00;;;18.90;99.90;;;;;;5029548;28;20059;-47
2022/06/27 02:45:58;;;;;;;2.72;1.35;;;18.90;99.90;;;;;;5018061;28;20106;-49
2022/06/27 02:48:25;;;;;;;2.05;1.60;;;18.90;99.90;;;;;;5024508;28;20054;-45
2022/06/27 02:51:05;;;;;;;1.88;1.02;;;18.90;99.90;;;;;;5029674;28;20044;-47
2022/06/27 02:53:44;;;;;;;2.10;1.42;;;18.90;99.90;;;;;;5047397;28;20455;-46
2022/06/27 02:56:12;;;;;;;2.35;1.50;;;18.90;99.90;;;;;;5023083;28;20487;-47
2022/06/27 02:58:53;;;;;;;1.77;0.80;;;18.90;99.90;;;;;;5034039;28;20042;-47
2022/06/27 03:01:20;;;;;;;1.40;0.90;;;18.90;99.90;;;;;;5005255;28;20041;-48
2022/06/27 03:03:48;;;;;;;3.17;1.30;;;18.80;99.90;;;;;;5028047;28;20049;-46
2022/06/27 03:06:14;;;;;;;2.40;1.00;;;18.80;99.90;;;;;;5012373;28;20565;-46
2022/06/27 03:08:47;;;;;;;1.80;1.13;;;18.80;99.90;;;;;;5025403;28;20048;-47
2022/06/27 03:11:15;;;;;;;1.25;0.80;;;18.80;99.90;;;;;;5031792;28;20447;-48
2022/06/27 03:13:43;;;;;;;1.55;0.95;;;18.80;99.90;;;;;;5025498;28;20046;-49
2022/06/27 03:16:09;;;;;;;3.42;1.50;;;18.80;99.90;;;;;;5037026;28;20079;-45
2022/06/27 03:18:35;;;;;;;2.33;1.15;;;18.80;99.90;;;;;;5013527;28;20048;-45
2022/06/27 03:21:00;;;;;;;1.48;1.33;;;18.80;99.90;;;;;;5029518;28;20037;-46
2022/06/27 03:23:27;;;;;;;2.67;1.40;;;18.80;99.90;;;;;;5034791;28;20087;-47
2022/06/27 03:25:52;;;;;;;3.63;2.22;;;18.80;99.90;;;;;;5029141;28;20045;-46
2022/06/27 03:28:18;;;;;;;2.15;1.98;;;18.80;99.90;;;;;;5025779;28;20110;-46
2022/06/27 03:30:45;;;;;;;4.03;2.35;;;18.80;99.90;;;;;;5032055;28;20508;-46
2022/06/27 03:33:10;;;;;;;3.88;2.63;;;18.80;99.90;;;;;;5027790;28;20492;-47
2022/06/27 03:35:36;;;;;;;2.85;2.22;;;18.80;99.90;;;;;;5023393;28;20040;-47
2022/06/27 03:38:02;;;;;;;2.15;1.85;;;18.80;99.90;;;;;;5009940;28;20129;-45
2022/06/27 03:40:28;;;;;;;2.58;1.60;;;18.80;99.90;;;;;;5025207;28;20396;-48
2022/06/27 03:42:53;;;;;;;2.97;2.08;;;18.70;99.90;;;;;;5024187;28;20034;-49
2022/06/27 03:45:19;;;;;;;1.63;1.48;;;18.70;99.90;;;;;;5025100;28;20103;-49
2022/06/27 03:47:54;;;;;;;1.98;1.50;;;18.70;99.90;;;;;;5034573;28;20043;-45
2022/06/27 03:50:21;;;;;;;2.25;0.93;;;18.70;99.90;;;;;;5018323;28;20046;-46
2022/06/27 03:52:47;;;;;;;1.60;0.80;;;18.70;99.90;;;;;;5021525;28;20042;-46
2022/06/27 03:55:13;;;;;;;1.58;1.00;;;18.70;99.90;;;;;;5026965;28;20496;-45
2022/06/27 03:57:47;;;;;;;1.42;0.65;;;18.70;99.90;;;;;;5029944;28;20781;-46
2022/06/27 04:00:13;;;;;;;2.55;0.60;;;18.70;99.90;;;;;;5025998;28;20116;-47
2022/06/27 04:02:38;;;;;;;1.48;0.70;;;18.70;99.90;;;;;;5025915;28;20470;-47
2022/06/27 04:05:05;;;;;;;1.65;0.75;;;18.70;99.90;;;;;;5028021;28;20041;-46
2022/06/27 04:07:30;;;;;;;2.00;0.50;;;18.70;99.90;;;;;;5025704;28;20037;-46
2022/06/27 04:09:57;;;;;;;1.73;0.50;;;18.60;99.90;;;;;;5029983;28;20052;-46
2022/06/27 04:12:23;;;;;;;1.50;0.70;;;18.60;99.90;;;;;;5025426;28;20137;-48
2022/06/27 04:14:49;;;;;;;1.38;0.57;;;18.60;99.90;;;;;;5028619;28;20040;-45
2022/06/27 04:17:15;;;;;;;1.38;0.50;;;18.60;99.90;;;;;;5025439;28;20124;-46
2022/06/27 04:19:41;;;;;;;1.60;0.40;;;18.60;99.90;;;;;;5014371;28;20985;-47
2022/06/27 04:22:08;;;;;;;1.35;0.50;;;18.60;99.90;;;;;;5025946;28;20072;-45
2022/06/27 04:24:35;;;;;;;0.70;0.50;;;18.50;99.90;;;;;;5030642;28;20045;-44
2022/06/27 04:27:02;;;;;;;2.33;0.63;;;18.60;99.90;;;;;;5026479;28;20080;-45
2022/06/27 04:29:29;;;;;;;2.10;0.40;;;18.50;99.90;;;;;;5023854;28;20038;-45
2022/06/27 04:31:55;;;;;;;1.17;0.50;;;18.60;99.90;;;;;;5018829;28;20116;-47
2022/06/27 04:34:21;;;;;;;1.63;0.50;;;18.60;99.90;;;;;;5025343;28;20141;-45
2022/06/27 04:36:46;;;;;;;3.28;0.50;;;18.50;99.90;;;;;;5032393;28;20038;-45
2022/06/27 04:39:15;;;;;;;1.77;0.60;;;18.50;99.90;;;;;;5028862;28;20518;-48
2022/06/27 04:41:44;;;;;;;0.88;0.40;;;18.50;99.90;;;;;;5026167;28;20041;-48
2022/06/27 04:44:11;;;;;;;0.90;0.40;;;18.50;99.90;;;;;;5022440;28;20041;-44
2022/06/27 04:46:38;;;;;;;1.92;0.60;;;18.50;99.90;;;;;;5034329;28;20108;-45
2022/06/27 04:49:05;;;;;;;0.98;0.50;;;18.50;99.90;;;;;;5023453;28;20072;-49
2022/06/27 04:51:32;;;;;;;0.68;0.50;;;18.50;99.90;;;;;;5021015;28;20053;-45
2022/06/27 04:53:58;;;;;;;1.73;0.50;;;18.50;99.90;;;;;;5023344;28;20046;-47
2022/06/27 04:56:24;;;;;;;1.05;0.40;;;18.40;99.90;;;;;;5023604;28;20290;-47
2022/06/27 04:58:50;;;;;;;1.05;0.50;;;18.40;99.90;;;;;;5025437;28;20451;-46
2022/06/27 05:01:15;;;;;;;2.03;0.60;;;18.50;99.90;;;;;;5021064;28;20056;-48
2022/06/27 05:03:41;;;;;;;0.90;0.60;;;18.40;99.90;;;;;;5022702;28;20042;-49
2022/06/27 05:06:07;;;;;;;2.78;0.50;;;18.50;99.90;;;;;;5022103;28;20033;-46
2022/06/27 05:08:33;;;;;;;1.63;0.50;;;18.40;99.90;;;;;;5025383;28;20037;-47
2022/06/27 05:10:58;;;;;;;1.10;0.60;;;18.40;99.90;;;;;;5011785;28;20052;-45
2022/06/27 05:13:24;;;;;;;1.35;0.50;;;18.40;99.90;;;;;;5028754;28;20038;-45
2022/06/27 05:15:50;;;;;;;0.80;0.40;;;18.40;99.90;;;;;;5023178;28;20037;-45
2022/06/27 05:18:16;;;;;;;1.73;0.52;;;18.50;99.90;;;;;;5022225;28;20411;-44
2022/06/27 05:20:43;;;;;;;1.55;0.40;;;18.40;99.90;;;;;;5014792;28;20042;-45
2022/06/27 05:23:09;;;;;;;1.48;0.40;;;18.40;99.90;;;;;;5033153;28;20539;-48
2022/06/27 05:25:35;;;;;;;1.23;0.50;;;18.40;99.90;;;;;;5026176;28;20052;-45
2022/06/27 05:28:02;;;;;;;1.27;0.43;;;18.50;99.90;;;;;;5033034;28;20519;-47
2022/06/27 05:30:28;;;;;;;0.95;0.40;;;18.40;99.90;;;;;;5039612;28;20407;-47
2022/06/27 05:32:55;;;;;;;0.95;0.40;;;18.40;99.90;;;;;;5013156;28;20033;-44
2022/06/27 05:35:21;;;;;;;1.08;0.50;;;18.50;99.90;;;;;;5030861;28;20045;-46
2022/06/27 05:37:47;;;;;;;0.65;0.47;;;18.50;99.90;;;;;;5010011;28;20037;-45
2022/06/27 05:40:13;;;;;;;1.17;0.50;;;18.50;99.90;;;;;;5026576;28;20045;-46
2022/06/27 05:42:39;;;;;;;0.90;0.50;;;18.50;99.90;;;;;;5035611;28;20107;-45
2022/06/27 05:45:06;;;;;;;2.22;0.47;;;18.60;99.90;;;;;;5020586;28;20504;-46
2022/06/27 05:47:32;;;;;;;1.48;0.80;;;18.60;99.90;;;;;;5028715;28;20488;-48
2022/06/27 05:49:59;;;;;;;1.95;1.30;;;18.70;99.90;;;;;;5026981;28;20140;-46
2022/06/27 05:52:26;;;;;;;1.83;0.80;;;18.70;99.90;;;;;;5039055;28;20160;-46
2022/06/27 05:54:52;;;;;;;3.28;1.10;;;18.70;99.90;;;;;;5023160;28;20043;-46
2022/06/27 05:57:19;;;;;;;1.92;0.95;;;18.70;99.90;;;;;;5031579;28;20092;-46
2022/06/27 05:59:46;;;;;;;1.48;0.65;;;18.70;99.90;;;;;;5024187;28;20099;-49
2022/06/27 06:02:12;;;;;;;2.85;1.00;;;18.70;99.90;;;;;;5024963;28;20041;-47
2022/06/27 06:04:38;;;;;;;2.55;1.20;;;18.80;99.90;;;;;;5033707;28;20446;-48
2022/06/27 06:07:04;;;;;;;2.55;1.17;;;18.80;99.90;;;;;;5028189;28;20037;-45
2022/06/27 06:09:32;;;;;;;1.75;0.88;;;18.80;99.90;;;;;;5029273;28;20036;-45
2022/06/27 06:11:59;;;;;;;1.85;0.63;;;18.80;99.90;;;;;;5031350;28;20063;-48
2022/06/27 06:14:24;;;;;;;1.65;1.20;;;18.90;99.90;;;;;;5026003;28;20060;-49
2022/06/27 06:16:50;;;;;;;1.80;1.13;;;18.90;99.90;;;;;;5027345;28;20049;-47
2022/06/27 06:19:17;;;;;;;1.85;1.30;;;18.90;99.90;;;;;;5035886;28;20132;-45
2022/06/27 06:21:43;;;;;;;3.67;1.15;;;19.00;99.90;;;;;;5037510;28;20041;-45
2022/06/27 06:24:09;;;;;;;2.20;0.90;;;19.00;99.90;;;;;;5030571;28;20037;-48
2022/06/27 06:26:35;;;;;;;3.00;1.83;;;19.00;99.90;;;;;;5046345;28;20103;-44
2022/06/27 06:29:12;;;;;;;1.90;1.25;;;19.10;99.90;;;;;;5035488;28;20459;-49
2022/06/27 06:31:41;;;;;;;1.98;1.50;;;19.10;99.90;;;;;;5025676;28;20120;-46
2022/06/27 06:34:07;;;;;;;2.13;1.15;;;19.10;99.90;;;;;;5028416;28;20080;-46
2022/06/27 06:36:35;;;;;;;3.70;1.63;;;19.10;99.90;;;;;;5018670;28;20053;-46
2022/06/27 06:39:02;;;;;;;2.50;1.45;;;19.10;99.90;;;;;;5013934;28;20492;-46
2022/06/27 06:41:28;;;;;;;1.95;1.27;;;19.10;99.90;;;;;;5028327;28;20038;-45
2022/06/27 06:43:54;;;;;;;2.05;1.23;;;19.10;99.90;;;;;;5016911;28;20037;-47
2022/06/27 06:46:20;;;;;;;1.80;0.77;;;19.10;99.90;;;;;;5026061;28;20082;-48
2022/06/27 06:48:46;;;;;;;4.43;1.70;;;19.10;99.90;;;;;;5019403;28;20089;-45
2022/06/27 06:51:15;;;;;;;3.05;1.10;;;19.10;99.90;;;;;;5026969;28;20041;-46
2022/06/27 06:53:41;;;;;;;3.13;1.25;;;19.10;99.90;;;;;;5023118;28;20401;-44
2022/06/27 06:56:07;;;;;;;2.92;1.00;;;19.10;99.90;;;;;;5025926;28;20060;-46
2022/06/27 06:58:34;;;;;;;2.08;1.20;;;19.00;99.90;;;;;;5024024;28;20041;-48
2022/06/27 07:01:01;;;;;;;1.92;1.00;;;19.00;99.90;;;;;;5023841;28;20037;-48
2022/06/27 07:03:28;;;;;;;4.10;0.98;;;19.00;99.90;;;;;;5028123;28;20076;-46
2022/06/27 07:05:54;;;;;;;1.98;1.10;;;19.00;99.90;;;;;;5028977;28;20172;-46
2022/06/27 07:08:21;;;;;;;2.75;1.05;;;19.00;99.90;;;;;;5020715;28;20038;-49
2022/06/27 07:10:46;;;;;;;1.95;0.95;;;18.90;99.90;;;;;;5030104;28;20042;-47
2022/06/27 07:13:13;;;;;;;2.60;0.90;;;19.00;99.90;;;;;;5023799;28;20042;-46
2022/06/27 07:15:39;;;;;;;4.60;1.10;;;19.00;99.90;;;;;;5030488;28;20034;-45
2022/06/27 07:18:05;;;;;;;2.30;1.38;;;19.00;99.90;;;;;;5024722;28;20080;-48
2022/06/27 07:20:32;;;;;;;2.30;1.23;;;19.00;99.90;;;;;;5028746;28;20561;-45
2022/06/27 07:22:58;;;;;;;2.08;0.90;;;19.00;99.90;;;;;;5027688;28;20049;-49
2022/06/27 07:25:25;;;;;;;1.50;0.70;;;19.00;99.90;;;;;;5028465;28;20049;-48
2022/06/27 07:27:51;;;;;;;1.95;0.80;;;19.00;99.90;;;;;;5025096;28;20049;-45
2022/06/27 07:30:19;;;;;;;3.25;0.90;;;19.00;99.90;;;;;;5021913;28;20102;-45
2022/06/27 07:32:46;;;;;;;3.00;1.00;;;19.00;99.90;;;;;;5032421;28;20054;-45
2022/06/27 07:35:13;;;;;;;2.47;0.60;;;19.00;99.90;;;;;;5018711;28;20040;-46
2022/06/27 07:37:44;;;;;;;2.03;0.70;;;19.00;99.90;;;;;;5028767;28;20068;-45
2022/06/27 07:40:10;;;;;;;2.33;0.73;;;19.00;99.90;;;;;;5036235;28;20036;-50
2022/06/27 07:42:35;;;;;;;4.47;0.90;;;19.00;99.90;;;;;;5016040;28;20044;-46
2022/06/27 07:45:01;;;;;;;2.33;0.80;;;19.10;99.90;;;;;;5027468;28;20041;-46
2022/06/27 07:47:27;;;;;;;3.28;0.77;;;19.10;99.90;;;;;;5022462;28;20038;-45
2022/06/27 07:49:52;;;;;;;3.40;0.60;;;19.10;99.90;;;;;;5006671;28;20052;-46
2022/06/27 07:52:18;;;;;;;4.10;0.50;;;19.10;99.90;;;;;;5012405;28;20042;-48
2022/06/27 07:54:44;;;;;;;4.07;0.80;;;19.00;99.90;;;;;;5023728;28;20387;-46
2022/06/27 07:57:10;;;;;;;1.80;0.80;;;19.10;99.90;;;;;;5041339;28;20778;-46
2022/06/27 07:59:38;;;;;;;2.25;0.60;;;19.10;99.90;;;;;;5023087;28;20038;-46
2022/06/27 08:02:04;;;;;;;4.18;1.20;;;19.10;99.90;;;;;;5027939;28;20041;-45
2022/06/27 08:04:31;;;;;;;1.80;1.17;;;19.10;99.90;;;;;;5025407;28;20048;-45
2022/06/27 08:06:57;;;;;;;2.65;1.08;;;19.10;99.90;;;;;;5040328;28;20052;-48
2022/06/27 08:09:22;;;;;;;2.65;1.10;;;19.10;99.90;;;;;;5028527;28;20390;-46
2022/06/27 08:11:48;;;;;;;2.95;1.30;;;19.10;99.90;;;;;;5024650;28;20072;-47
2022/06/27 08:14:18;;;;;;;2.88;1.40;;;19.10;99.90;;;;;;5005192;28;20309;-47
2022/06/27 08:16:49;;;;;;;2.33;1.20;;;19.20;99.90;;;;;;5022834;28;20049;-46
2022/06/27 08:19:15;;;;;;;2.05;1.23;;;19.20;99.90;;;;;;5034875;28;20161;-48
2022/06/27 08:21:43;;;;;;;3.22;1.30;;;19.20;99.90;;;;;;5028672;28;20036;-45
2022/06/27 08:24:11;;;;;;;1.83;0.80;;;19.20;99.90;;;;;;5007845;28;20057;-44
2022/06/27 08:26:38;;;;;;;2.65;1.10;;;19.20;99.90;;;;;;5025520;28;20033;-45
2022/06/27 08:29:05;;;;;;;2.60;1.60;;;19.20;99.90;;;;;;5046036;28;20479;-47
2022/06/27 08:31:34;;;;;;;4.53;1.40;;;19.20;99.90;;;;;;5025644;28;20046;-45
2022/06/27 08:34:02;;;;;;;3.42;1.33;;;19.30;99.90;;;;;;5004424;28;20045;-44
2022/06/27 08:36:33;;;;;;;2.30;1.40;;;19.20;99.90;;;;;;5030179;28;20068;-49
2022/06/27 08:38:59;;;;;;;2.92;1.20;;;19.20;99.90;;;;;;5020848;28;20120;-45
2022/06/27 08:41:25;;;;;;;3.33;1.27;;;19.20;99.90;;;;;;5019304;28;20060;-47
2022/06/27 08:43:58;;;;;;;1.63;1.13;;;19.20;99.90;;;;;;5023585;28;20041;-46
2022/06/27 08:46:24;;;;;;;2.53;1.40;;;19.30;99.90;;;;;;5024224;28;20045;-45
2022/06/27 08:48:50;;;;;;;2.33;1.85;;;19.30;99.90;;;;;;5019477;28;20137;-45
2022/06/27 08:51:18;;;;;;;2.88;1.40;;;19.30;99.90;;;;;;5009237;28;20688;-46
2022/06/27 08:53:44;;;;;;;1.95;1.75;;;19.30;99.90;;;;;;4994357;28;20488;-49
2022/06/27 08:56:13;;;;;;;2.55;1.30;;;19.30;99.90;;;;;;5025533;28;20377;-45
2022/06/27 08:58:46;;;;;;;2.42;1.33;;;19.40;99.90;;;;;;5024760;28;20037;-46
2022/06/27 09:01:13;;;;;;;;;;;19.40;99.90;;;;;;5015765;28;20051;-44
2022/06/27 09:03:39;;;;;;;1.77;1.15;;;19.40;99.90;;;;;;5022305;28;20210;-46
2022/06/27 09:06:07;;;;;;;3.47;1.42;;;19.40;99.90;;;;;;5009471;28;20133;-45
2022/06/27 09:08:52;;;;;;;2.42;1.10;;;19.40;99.90;;;;;;5023997;28;20095;-45
2022/06/27 09:11:31;;;;;;;3.45;1.48;;;19.50;99.90;;;;;;5008536;28;20045;-46
2022/06/27 09:13:58;;;;;;;3.55;1.20;;;19.40;99.90;;;;;;5012290;28;20080;-49
2022/06/27 09:16:24;;;;;;;4.65;1.40;;;19.40;99.90;;;;;;5025519;28;20041;-44
2022/06/27 09:18:50;;;;;;;3.45;1.17;;;19.40;99.90;;;;;;5024908;28;20037;-46
2022/06/27 09:21:16;;;;;;;1.98;0.80;;;19.40;99.90;;;;;;5019049;28;20052;-46
2022/06/27 09:23:47;;;;;;;3.80;1.10;;;19.40;99.90;;;;;;5024905;28;20049;-48
2022/06/27 09:26:13;;;;;;;1.88;1.00;;;19.50;99.90;;;;;;5011326;28;20160;-45
2022/06/27 09:29:03;;;;;;;1.85;0.80;;;19.50;99.90;;;;;;5010655;28;20132;-47
2022/06/27 09:31:32;;;;;;;2.08;1.23;;;19.50;99.90;;;;;;5011445;28;20038;-44
2022/06/27 09:34:10;;;;;;;2.08;1.35;;;19.50;99.90;;;;;;5017435;28;20099;-47
2022/06/27 09:36:45;;;;;;;2.10;1.17;;;19.50;99.90;;;;;;5022723;28;20036;-48
2022/06/27 09:39:19;;;;;;;1.40;0.90;;;19.50;99.90;;;;;;5026476;28;20171;-45
2022/06/27 09:41:54;;;;;;;1.23;0.90;;;19.50;99.90;;;;;;5023417;28;20046;-46
2022/06/27 09:44:24;;;;;;;3.90;0.95;;;19.50;99.90;;;;;;5009305;28;20473;-45
2022/06/27 09:47:13;;;;;;;1.48;0.70;;;19.50;99.90;;;;;;5019401;28;20073;-48
2022/06/27 09:49:41;;;;;;;2.38;0.68;;;19.50;99.90;;;;;;5026978;28;20049;-45
2022/06/27 09:52:15;;;;;;;2.03;0.65;;;19.50;99.90;;;;;;5019205;28;20038;-46
2022/06/27 09:54:42;;;;;;;1.05;0.70;;;19.50;99.90;;;;;;5021444;28;20100;-48
2022/06/27 09:57:10;;;;;;;2.03;0.90;;;19.40;99.90;;;;;;5016629;28;20043;-45
2022/06/27 09:59:37;;;;;;;1.42;0.52;;;19.40;99.90;;;;;;5018537;28;20037;-45
2022/06/27 10:02:07;;;;;;;3.10;0.70;;;19.50;99.90;;;;;;5022504;28;20033;-46
2022/06/27 10:04:35;;;;;;;1.80;0.70;;;19.40;99.90;;;;;;5030609;28;20466;-45
2022/06/27 10:07:03;;;;;;;2.45;0.55;;;19.50;99.90;;;;;;5037810;28;20045;-45
2022/06/27 10:09:30;;;;;;;2.25;0.70;;;19.40;99.90;;;;;;5030452;28;20076;-47
2022/06/27 10:12:24;;;;;;;2.28;0.57;;;19.50;99.90;;;;;;5030917;28;20041;-46
2022/06/27 10:15:12;;;;;;;1.35;0.50;;;19.50;99.90;;;;;;5030470;28;20041;-48
2022/06/27 10:17:43;;;;;;;1.80;0.70;;;19.60;99.90;;;;;;5034484;28;20116;-45
2022/06/27 10:20:10;;;;;;;0.85;0.50;;;19.60;99.90;;;;;;5037412;28;20399;-45
2022/06/27 10:22:36;;;;;;;1.83;0.50;;;19.60;99.90;;;;;;5036522;28;20108;-46
2022/06/27 10:25:26;;;;;;;1.30;0.70;;;19.70;99.90;;;;;;5031380;28;20045;-44
2022/06/27 10:28:10;;;;;;;0.82;0.50;;;19.70;99.90;;;;;;5034071;28;20045;-45
2022/06/27 10:30:46;;;;;;;0.95;0.50;;;19.70;99.90;;;;;;5043816;28;20033;-46
2022/06/27 10:33:17;;;;;;;1.02;0.50;;;19.80;99.90;;;;;;5046201;28;20506;-46
2022/06/27 10:38:31;;;;;;;1.77;0.50;;;19.80;99.90;;;;;;5034434;28;20144;-47
2022/06/27 10:41:02;;;;;;;3.22;0.40;;;19.90;99.90;;;;;;5031573;28;20513;-45
2022/06/27 10:43:40;;;;;;;0.95;0.47;;;19.90;99.90;;;;;;5031847;28;20041;-44
2022/06/27 10:46:11;;;;;;;1.30;0.70;;;19.90;99.90;;;;;;5029891;28;20037;-45
2022/06/27 10:48:47;;;;;;;2.13;0.70;;;19.90;99.90;;;;;;5030872;28;20248;-46
2022/06/27 10:51:24;;;;;;;1.80;1.02;;;20.00;99.90;;;;;;5030221;28;20496;-44
2022/06/27 10:53:52;;;;;;;2.58;1.60;;;20.00;99.90;;;;;;5013894;28;20403;-44
2022/06/27 10:56:31;;;;;;;2.40;1.52;;;20.00;99.90;;;;;;5031409;28;20123;-47
2022/06/27 10:58:58;;;;;;;2.70;1.55;;;20.10;99.90;;;;;;5031292;28;20037;-45
2022/06/27 11:01:24;;;;;;;3.28;1.48;;;20.10;99.90;;;;;;5031315;28;20060;-46
2022/06/27 11:03:50;;;;;;;2.20;1.55;;;20.10;99.90;;;;;;5030160;28;20115;-47
2022/06/27 11:06:17;;;;;;;2.38;1.65;;;20.10;99.90;;;;;;5031487;28;20033;-46
2022/06/27 11:08:46;;;;;;;3.55;1.60;;;20.10;99.90;;;;;;5029573;28;20080;-45
2022/06/27 11:11:23;;;;;;;1.60;1.50;;;20.20;99.90;;;;;;5030245;28;20076;-44
2022/06/27 11:13:53;;;;;;;3.47;2.28;;;20.20;99.90;;;;;;5031241;28;20048;-45
2022/06/27 11:16:27;;;;;;;3.45;1.80;;;20.20;99.90;;;;;;5029829;28;20155;-45
2022/06/27 11:19:02;;;;;;;4.00;1.98;;;20.20;99.90;;;;;;5030951;28;20551;-45
2022/06/27 11:21:32;;;;;;;2.88;2.05;;;20.30;99.90;;;;;;5031274;28;20041;-45
2022/06/27 11:24:02;;;;;;;2.70;2.28;;;20.30;99.90;;;;;;5029669;28;20894;-48
2022/06/27 11:26:48;;;;;;;3.72;1.95;;;20.30;99.90;;;;;;5031350;28;20094;-45
2022/06/27 11:32:08;;;;;;;3.47;1.70;;;20.30;99.90;;;;;;5031008;28;20123;-45
2022/06/27 11:34:36;;;;;;;3.05;2.47;;;20.30;99.90;;;;;;5030978;28;20403;-45
2022/06/27 11:37:16;;;;;;;3.60;2.05;;;20.30;99.90;;;;;;5030696;28;20034;-45
2022/06/27 11:40:03;;;;;;;2.88;2.13;;;20.30;99.90;;;;;;5012981;28;20053;-46
2022/06/27 11:42:30;;;;;;;2.92;2.33;;;20.30;99.90;;;;;;5030767;28;20434;-47
2022/06/27 11:45:05;;;;;;;2.75;2.10;;;20.30;99.90;;;;;;5028840;28;20095;-46
2022/06/27 11:47:34;;;;;;;2.58;2.30;;;20.30;99.90;;;;;;5030350;28;20040;-46
2022/06/27 11:50:04;;;;;;;4.57;2.20;;;20.40;99.90;;;;;;5012498;28;20057;-44
2022/06/27 11:52:38;;;;;;;4.00;2.10;;;20.40;99.90;;;;;;5030231;28;20049;-45
2022/06/27 11:55:12;;;;;;;3.45;2.60;;;20.40;99.90;;;;;;5028885;28;20072;-45
2022/06/27 11:57:56;;;;;;;2.55;2.05;;;20.40;99.90;;;;;;5030413;28;20331;-45
2022/06/27 12:00:33;;;;;;;2.13;1.83;;;20.40;99.90;;;;;;5030446;28;20080;-44
2022/06/27 12:02:59;;;;;;;2.15;1.90;;;20.40;99.90;;;;;;5029148;28;20049;-45
2022/06/27 12:05:25;;;;;;;2.53;2.20;;;20.50;99.90;;;;;;5028930;28;20715;-45
2022/06/27 12:07:58;;;;;;;3.13;2.45;;;20.50;99.90;;;;;;5028846;28;20120;-46
2022/06/27 12:10:46;;;;;;;3.40;1.70;;;20.50;99.90;;;;;;5030194;28;20135;-46
2022/06/27 12:13:16;;;;;;;2.15;1.90;;;20.60;99.90;;;;;;5028775;28;20120;-46
2022/06/27 12:15:45;;;;;;;2.85;2.20;;;20.60;99.90;;;;;;5030022;28;20038;-46
2022/06/27 12:18:12;;;;;;;3.25;2.55;;;20.70;99.90;;;;;;5030164;28;20045;-46
2022/06/27 12:20:40;;;;;;;2.75;2.55;;;20.70;99.90;;;;;;5028552;28;20045;-45
2022/06/27 12:23:06;;;;;;;3.22;2.35;;;20.70;99.90;;;;;;5029589;28;20041;-45
2022/06/27 12:25:35;;;;;;;3.72;2.80;;;20.70;99.90;;;;;;5029915;28;20067;-46
2022/06/27 12:28:02;;;;;;;2.80;2.60;;;20.70;99.90;;;;;;5029631;28;20553;-45
2022/06/27 12:30:28;;;;;;;3.28;2.25;;;20.70;99.90;;;;;;5028799;28;20522;-44
2022/06/27 12:32:54;;;;;;;3.15;2.40;;;20.80;99.90;;;;;;5029567;28;20038;-46
2022/06/27 12:35:19;;;;;;;1.88;1.75;;;20.80;99.90;;;;;;5011963;28;20042;-44
2022/06/27 12:37:45;;;;;;;1.60;1.50;;;20.80;99.90;;;;;;5028458;28;20045;-44
2022/06/27 12:40:12;;;;;;;1.35;0.90;;;20.80;99.90;;;;;;5031756;28;20073;-45
2022/06/27 12:42:38;;;;;;;1.75;0.95;;;20.80;99.90;;;;;;5033307;28;20046;-44
2022/06/27 12:45:05;;;;;;;1.75;1.00;;;20.80;99.90;;;;;;5031519;28;20053;-45
2022/06/27 12:47:31;;;;;;;1.83;0.63;;;20.80;99.90;;;;;;5031627;28;20558;-44
2022/06/27 12:49:56;;;;;;;1.40;0.80;;;20.80;99.90;;;;;;5031428;28;20133;-45
2022/06/27 12:52:22;;;;;;;1.80;0.60;;;20.80;99.90;;;;;;5031879;28;20073;-45
2022/06/27 12:54:48;;;;;;;0.98;0.50;;;20.80;99.90;;;;;;5031414;28;20056;-44
2022/06/27 12:57:13;;;;;;;1.63;0.80;;;20.80;99.90;;;;;;5031563;28;20100;-45
2022/06/27 12:59:43;;;;;;;1.40;0.70;;;20.80;99.90;;;;;;5031540;28;20399;-46